createdAt,value
2018-03-25T00:01:01.378Z,22.70
2018-03-25T00:03:33.957Z,19.67
2018-03-25T00:06:05.930Z,20.15
2018-03-25T00:08:37.702Z,20.12
2018-03-25T00:11:05.749Z,20.27
2018-03-25T00:13:46.418Z,19.40
2018-03-25T00:16:28.161Z,20.48
2018-03-25T00:18:57.070Z,19.45
2018-03-25T00:21:42.454Z,19.83
2018-03-25T00:24:16.430Z,20.30
2018-03-25T00:26:45.345Z,18.27
2018-03-25T00:29:14.342Z,19.17
2018-03-25T00:31:42.350Z,19.80
2018-03-25T00:34:14.487Z,20.70
2018-03-25T00:36:46.054Z,21.02
2018-03-25T00:39:19.854Z,20.65
2018-03-25T00:41:47.865Z,23.85
2018-03-25T00:44:16.813Z,22.60
2018-03-25T00:46:48.157Z,23.55
2018-03-25T00:49:16.391Z,21.90
2018-03-25T00:51:48.697Z,23.95
2018-03-25T00:54:21.322Z,23.12
2018-03-25T00:56:50.602Z,23.38
2018-03-25T00:59:21.306Z,19.80
2018-03-25T01:01:54.449Z,20.90
2018-03-25T01:04:23.406Z,23.25
2018-03-25T01:07:01.461Z,20.12
2018-03-25T01:09:33.497Z,20.98
2018-03-25T01:12:02.278Z,22.60
2018-03-25T01:14:31.065Z,23.48
2018-03-25T01:16:59.866Z,19.05
2018-03-25T01:22:22.653Z,23.15
2018-03-25T01:24:51.832Z,22.55
2018-03-25T01:27:25.124Z,21.75
2018-03-25T01:29:54.325Z,21.17
2018-03-25T01:32:26.645Z,21.90
2018-03-25T01:34:54.677Z,22.08
2018-03-25T01:37:26.089Z,24.20
2018-03-25T01:39:57.907Z,23.58
2018-03-25T01:42:25.991Z,23.45
2018-03-25T01:44:54.012Z,22.08
2018-03-25T01:47:29.885Z,22.60
2018-03-25T01:50:02.995Z,22.60
2018-03-25T01:52:34.822Z,23.55
2018-03-25T01:55:04.574Z,22.20
2018-03-25T01:57:46.750Z,23.15
2018-03-25T02:00:19.041Z,23.15
2018-03-25T02:02:49.069Z,20.92
2018-03-25T02:05:20.629Z,21.23
2018-03-25T02:07:53.337Z,23.67
2018-03-25T02:10:26.090Z,24.80
2018-03-25T02:12:55.070Z,22.80
2018-03-25T02:15:23.081Z,25.20
2018-03-25T02:17:56.537Z,22.50
2018-03-25T02:20:24.590Z,24.02
2018-03-25T02:22:54.653Z,21.90
2018-03-25T02:25:35.669Z,22.87
2018-03-25T02:30:57.866Z,23.87
2018-03-25T02:33:31.025Z,27.52
2018-03-25T02:35:59.075Z,23.42
2018-03-25T02:38:37.394Z,25.40
2018-03-25T02:41:25.713Z,23.92
2018-03-25T02:44:01.761Z,22.15
2018-03-25T02:46:42.477Z,21.85
2018-03-25T02:49:26.285Z,23.17
2018-03-25T02:51:58.044Z,24.40
2018-03-25T02:54:38.706Z,23.38
2018-03-25T02:57:13.358Z,22.37
2018-03-25T02:59:47.177Z,24.23
2018-03-25T03:02:25.702Z,23.67
2018-03-25T03:05:06.199Z,23.85
2018-03-25T03:07:37.304Z,23.00
2018-03-25T03:13:04.934Z,24.35
2018-03-25T03:15:33.000Z,23.30
2018-03-25T03:18:10.317Z,25.37
2018-03-25T03:20:40.341Z,25.80
2018-03-25T03:23:09.377Z,27.92
2018-03-25T03:25:44.449Z,27.52
2018-03-25T03:28:13.489Z,27.83
2018-03-25T03:30:56.902Z,26.83
2018-03-25T03:33:28.053Z,25.48
2018-03-25T03:35:56.074Z,25.52
2018-03-25T03:38:32.273Z,24.90
2018-03-25T03:41:03.214Z,23.15
2018-03-25T03:43:32.210Z,24.12
2018-03-25T03:46:08.233Z,24.55
2018-03-25T03:48:47.073Z,22.58
2018-03-25T03:54:09.340Z,24.05
2018-03-25T03:56:47.765Z,24.52
2018-03-25T04:02:18.989Z,25.88
2018-03-25T04:04:47.097Z,22.92
2018-03-25T04:07:15.065Z,26.45
2018-03-25T04:09:58.136Z,25.88
2018-03-25T04:12:27.901Z,24.25
2018-03-25T04:17:50.157Z,23.17
2018-03-25T04:20:20.181Z,24.63
2018-03-25T04:22:50.904Z,23.85
2018-03-25T04:25:19.905Z,26.40
2018-03-25T04:27:54.589Z,25.92
2018-03-25T04:33:16.837Z,25.58
2018-03-25T04:35:46.800Z,25.45
2018-03-25T04:38:29.854Z,24.83
2018-03-25T04:43:54.000Z,23.92
2018-03-25T04:46:37.176Z,23.83
2018-03-25T04:49:08.470Z,26.08
2018-03-25T04:51:37.472Z,24.35
2018-03-25T04:54:06.452Z,24.63
2018-03-25T04:56:34.476Z,24.65
2018-03-25T04:59:04.449Z,25.70
2018-03-25T05:01:33.429Z,25.20
2018-03-25T05:04:05.616Z,25.30
2018-03-25T05:06:35.400Z,23.35
2018-03-25T05:09:04.429Z,24.33
2018-03-25T05:11:40.532Z,24.83
2018-03-25T05:14:15.461Z,24.35
2018-03-25T05:16:45.437Z,23.52
2018-03-25T05:19:15.252Z,25.80
2018-03-25T05:21:48.107Z,23.67
2018-03-25T05:24:16.133Z,25.27
2018-03-25T05:26:44.148Z,23.27
2018-03-25T05:29:12.161Z,25.80
2018-03-25T05:31:53.660Z,26.08
2018-03-25T05:34:26.240Z,25.52
2018-03-25T05:36:54.980Z,24.52
2018-03-25T05:39:25.685Z,25.92
2018-03-25T05:41:54.698Z,24.60
2018-03-25T05:44:22.712Z,25.00
2018-03-25T05:46:52.456Z,27.40
2018-03-25T05:49:21.437Z,28.90
2018-03-25T05:51:56.752Z,28.90
2018-03-25T05:54:24.756Z,25.37
2018-03-25T05:56:56.523Z,26.75
2018-03-25T05:59:29.088Z,26.50
2018-03-25T06:01:57.100Z,29.12
2018-03-25T06:04:25.881Z,29.45
2018-03-25T06:06:54.668Z,28.02
2018-03-25T06:09:25.372Z,26.50
2018-03-25T06:11:53.397Z,26.65
2018-03-25T06:14:21.404Z,28.12
2018-03-25T06:16:49.420Z,23.95
2018-03-25T06:19:18.192Z,26.90
2018-03-25T06:21:46.986Z,28.48
2018-03-25T06:24:20.752Z,28.98
2018-03-25T06:26:56.073Z,27.40
2018-03-25T06:29:34.880Z,27.90
2018-03-25T06:32:04.835Z,29.30
2018-03-25T06:34:32.864Z,27.05
2018-03-25T06:37:06.320Z,25.67
2018-03-25T06:39:38.048Z,24.05
2018-03-25T06:42:07.059Z,24.12
2018-03-25T06:44:35.084Z,26.50
2018-03-25T06:47:04.005Z,25.30
2018-03-25T06:52:39.400Z,26.12
2018-03-25T06:55:15.879Z,23.35
2018-03-25T06:57:51.968Z,24.17
2018-03-25T07:00:28.564Z,24.48
2018-03-25T07:03:06.236Z,24.60
2018-03-25T07:05:42.007Z,24.23
2018-03-25T07:08:10.059Z,24.85
2018-03-25T07:10:48.700Z,23.90
2018-03-25T07:13:17.708Z,23.85
2018-03-25T07:15:47.712Z,23.90
2018-03-25T07:18:22.631Z,23.83
2018-03-25T07:20:57.163Z,26.23
2018-03-25T07:23:26.123Z,26.75
2018-03-25T07:26:01.575Z,27.85
2018-03-25T07:28:30.605Z,26.37
2018-03-25T07:31:02.271Z,26.35
2018-03-25T07:33:30.288Z,27.08
2018-03-25T07:36:01.660Z,29.65
2018-03-25T07:38:29.680Z,27.23
2018-03-25T07:43:58.511Z,26.92
2018-03-25T07:52:26.151Z,28.67
2018-03-25T07:54:54.167Z,27.35
2018-03-25T07:57:32.380Z,28.62
2018-03-25T08:00:00.391Z,29.85
2018-03-25T08:02:29.403Z,25.17
2018-03-25T08:05:19.823Z,24.73
2018-03-25T08:07:47.823Z,27.85
2018-03-25T08:10:19.483Z,28.70
2018-03-25T08:13:09.119Z,24.52
2018-03-25T08:15:44.579Z,22.98
2018-03-25T08:18:13.495Z,23.95
2018-03-25T08:20:43.523Z,24.80
2018-03-25T08:23:12.499Z,24.42
2018-03-25T08:25:52.475Z,24.58
2018-03-25T08:28:20.495Z,24.73
2018-03-25T08:30:49.422Z,24.30
2018-03-25T08:33:25.472Z,25.27
2018-03-25T08:36:07.719Z,20.35
2018-03-25T08:38:36.747Z,21.83
2018-03-25T08:41:06.696Z,22.48
2018-03-25T08:46:33.861Z,21.00
2018-03-25T08:51:57.243Z,24.40
2018-03-25T08:54:33.483Z,22.20
2018-03-25T08:57:06.691Z,20.73
2018-03-25T08:59:34.711Z,21.87
2018-03-25T09:02:07.035Z,22.67
2018-03-25T09:04:35.278Z,20.00
2018-03-25T09:07:05.011Z,19.63
2018-03-25T09:09:33.019Z,18.90
2018-03-25T09:12:02.781Z,19.57
2018-03-25T09:14:30.799Z,20.20
2018-03-25T09:17:00.775Z,19.40
2018-03-25T09:19:40.887Z,19.23
2018-03-25T09:22:29.047Z,21.40
2018-03-25T09:25:07.454Z,20.60
2018-03-25T09:27:41.247Z,20.33
2018-03-25T09:30:13.363Z,20.37
2018-03-25T09:32:53.887Z,19.53
2018-03-25T09:35:36.155Z,19.50
2018-03-25T09:38:15.218Z,19.80
2018-03-25T09:40:43.279Z,19.30
2018-03-25T09:43:15.005Z,19.63
2018-03-25T09:45:48.894Z,20.07
2018-03-25T09:48:16.866Z,20.93
2018-03-25T09:50:48.198Z,19.53
2018-03-25T09:53:16.222Z,18.90
2018-03-25T09:55:44.270Z,21.53
2018-03-25T09:58:14.043Z,21.80
2018-03-25T10:00:53.975Z,18.03
2018-03-25T10:03:31.594Z,17.77
2018-03-25T10:06:00.577Z,19.03
2018-03-25T10:08:32.434Z,16.80
2018-03-25T10:11:19.568Z,15.43
2018-03-25T10:13:57.530Z,15.80
2018-03-25T10:16:36.114Z,18.20
2018-03-25T10:19:10.290Z,16.57
2018-03-25T10:21:45.534Z,15.77
2018-03-25T10:24:13.545Z,16.73
2018-03-25T10:26:44.346Z,17.17
2018-03-25T10:29:17.214Z,17.07
2018-03-25T10:31:49.813Z,17.23
2018-03-25T10:34:26.546Z,18.20
2018-03-25T10:36:58.074Z,17.40
2018-03-25T10:39:31.920Z,20.00
2018-03-25T10:42:13.049Z,19.60
2018-03-25T10:44:53.130Z,18.63
2018-03-25T10:47:25.031Z,19.00
2018-03-25T10:49:55.038Z,19.73
2018-03-25T10:52:28.642Z,18.87
2018-03-25T10:54:57.518Z,20.03
2018-03-25T10:57:30.015Z,19.90
2018-03-25T10:59:59.998Z,19.07
2018-03-25T11:02:36.414Z,19.17
2018-03-25T11:05:28.578Z,18.83
2018-03-25T11:07:57.281Z,21.50
2018-03-25T11:10:26.199Z,19.10
2018-03-25T11:12:56.853Z,19.53
2018-03-25T11:15:29.290Z,19.20
2018-03-25T11:18:05.502Z,18.63
2018-03-25T11:20:49.085Z,19.50
2018-03-25T11:23:28.922Z,19.70
2018-03-25T11:26:01.839Z,18.93
2018-03-25T11:28:35.545Z,22.47
2018-03-25T11:31:08.202Z,20.73
2018-03-25T11:33:49.154Z,20.00
2018-03-25T11:36:31.518Z,19.87
2018-03-25T11:39:07.718Z,21.37
2018-03-25T11:41:37.666Z,20.47
2018-03-25T11:44:12.993Z,20.27
2018-03-25T11:46:46.897Z,19.87
2018-03-25T11:49:19.898Z,20.70
2018-03-25T11:51:54.186Z,19.50
2018-03-25T11:54:22.197Z,19.90
2018-03-25T11:56:52.195Z,19.70
2018-03-25T11:59:31.513Z,21.50
2018-03-25T12:02:08.815Z,20.70
2018-03-25T12:04:42.445Z,20.73
2018-03-25T12:07:21.825Z,20.03
2018-03-25T12:09:49.889Z,21.13
2018-03-25T12:12:21.538Z,21.50
2018-03-25T12:14:56.033Z,20.83
2018-03-25T12:17:29.262Z,20.50
2018-03-25T12:20:03.682Z,20.30
2018-03-25T12:22:39.706Z,21.73
2018-03-25T12:25:08.694Z,21.10
2018-03-25T12:27:37.494Z,19.80
2018-03-25T12:30:08.201Z,20.80
2018-03-25T12:32:44.019Z,20.60
2018-03-25T12:35:12.038Z,19.43
2018-03-25T12:37:40.817Z,18.53
2018-03-25T12:40:10.838Z,20.10
2018-03-25T12:42:51.649Z,20.87
2018-03-25T12:45:19.665Z,19.17
2018-03-25T12:48:00.170Z,19.60
2018-03-25T12:50:35.925Z,21.00
2018-03-25T12:53:16.505Z,18.97
2018-03-25T12:55:44.941Z,19.60
2018-03-25T12:58:23.709Z,19.73
2018-03-25T13:00:52.713Z,20.17
2018-03-25T13:03:32.449Z,17.60
2018-03-25T13:06:02.237Z,20.00
2018-03-25T13:08:34.250Z,19.17
2018-03-25T13:11:05.989Z,20.10
2018-03-25T13:13:36.017Z,19.40
2018-03-25T13:16:09.305Z,19.87
2018-03-25T13:18:38.289Z,18.77
2018-03-25T13:21:06.306Z,18.80
2018-03-25T13:23:36.277Z,19.50
2018-03-25T13:26:06.313Z,20.13
2018-03-25T13:28:34.334Z,19.43
2018-03-25T13:31:02.344Z,19.77
2018-03-25T13:33:30.380Z,19.00
2018-03-25T13:35:58.395Z,18.83
2018-03-25T13:38:27.399Z,19.87
2018-03-25T13:41:02.912Z,18.70
2018-03-25T13:43:42.049Z,18.53
2018-03-25T13:46:10.065Z,17.63
2018-03-25T13:48:43.004Z,18.77
2018-03-25T13:51:11.988Z,20.10
2018-03-25T13:53:39.993Z,19.60
2018-03-25T13:56:16.908Z,19.50
2018-03-25T13:58:49.981Z,17.50
2018-03-25T14:01:26.677Z,18.13
2018-03-25T14:04:05.933Z,19.03
2018-03-25T14:06:34.953Z,19.43
2018-03-25T14:09:02.953Z,18.83
2018-03-25T14:11:49.053Z,17.70
2018-03-25T14:14:22.968Z,18.00
2018-03-25T14:16:58.528Z,18.00
2018-03-25T14:22:22.428Z,17.80
2018-03-25T14:24:58.291Z,18.33
2018-03-25T14:27:33.012Z,18.13
2018-03-25T14:30:06.034Z,18.57
2018-03-25T14:32:34.036Z,17.70
2018-03-25T14:35:03.069Z,17.93
2018-03-25T14:37:41.644Z,18.10
2018-03-25T14:40:19.268Z,18.40
2018-03-25T14:42:47.284Z,17.53
2018-03-25T14:45:15.337Z,17.80
2018-03-25T14:47:44.300Z,17.50
2018-03-25T14:50:13.301Z,18.07
2018-03-25T14:52:41.332Z,17.20
2018-03-25T14:55:11.296Z,16.97
2018-03-25T14:57:40.284Z,16.57
2018-03-25T15:00:09.209Z,16.67
2018-03-25T15:02:39.279Z,14.97
2018-03-25T15:05:09.359Z,15.00
2018-03-25T15:07:40.038Z,17.07
2018-03-25T15:10:14.440Z,16.30
2018-03-25T15:12:44.364Z,14.47
2018-03-25T15:15:12.372Z,15.23
2018-03-25T15:17:43.057Z,14.60
2018-03-25T15:20:11.072Z,14.60
2018-03-25T15:22:39.848Z,15.37
2018-03-25T15:25:07.864Z,15.33
2018-03-25T15:27:42.284Z,15.63
2018-03-25T15:30:13.256Z,15.33
2018-03-25T15:32:42.281Z,15.70
2018-03-25T15:35:12.972Z,16.30
2018-03-25T15:37:44.536Z,15.10
2018-03-25T15:40:13.521Z,15.30
2018-03-25T15:42:41.528Z,16.50
2018-03-25T15:45:10.383Z,17.33
2018-03-25T15:47:44.390Z,13.50
2018-03-25T15:50:13.401Z,15.00
2018-03-25T15:52:41.402Z,14.43
2018-03-25T15:55:10.174Z,15.73
2018-03-25T15:57:38.953Z,14.87
2018-03-25T16:00:08.947Z,16.03
2018-03-25T16:02:37.403Z,14.47
2018-03-25T16:05:07.344Z,15.30
2018-03-25T16:07:36.348Z,15.40
2018-03-25T16:10:05.336Z,15.17
2018-03-25T16:12:38.624Z,15.17
2018-03-25T16:15:06.848Z,15.73
2018-03-25T16:17:34.856Z,14.83
2018-03-25T16:20:10.988Z,15.90
2018-03-25T16:22:39.008Z,15.10
2018-03-25T16:25:09.032Z,14.77
2018-03-25T16:27:39.749Z,16.00
2018-03-25T16:30:11.295Z,14.13
2018-03-25T16:32:39.344Z,14.33
2018-03-25T16:35:10.620Z,14.43
2018-03-25T16:37:45.144Z,14.37
2018-03-25T16:43:16.200Z,15.80
2018-03-25T16:45:45.208Z,15.10
2018-03-25T16:48:17.572Z,16.23
2018-03-25T16:51:00.516Z,15.53
2018-03-25T16:53:31.185Z,17.77
2018-03-25T16:56:00.316Z,16.00
2018-03-25T16:58:29.453Z,15.97
2018-03-25T17:01:18.536Z,15.47
2018-03-25T17:03:46.556Z,15.55
2018-03-25T17:06:15.324Z,15.27
2018-03-25T17:08:43.352Z,15.40
2018-03-25T17:11:11.417Z,15.27
2018-03-25T17:13:42.152Z,15.98
2018-03-25T17:16:11.176Z,15.77
2018-03-25T17:18:39.231Z,17.05
2018-03-25T17:21:07.208Z,17.35
2018-03-25T17:23:36.200Z,16.37
2018-03-25T17:26:07.564Z,18.30
2018-03-25T17:28:41.116Z,16.05
2018-03-25T17:31:09.132Z,15.77
2018-03-25T17:33:42.636Z,15.85
2018-03-25T17:36:14.196Z,16.20
2018-03-25T17:38:52.383Z,16.52
2018-03-25T17:41:36.776Z,18.42
2018-03-25T17:44:13.164Z,17.65
2018-03-25T17:46:59.496Z,19.45
2018-03-25T17:49:33.316Z,16.90
2018-03-25T17:52:08.308Z,14.70
2018-03-25T17:54:39.730Z,14.90
2018-03-25T17:57:19.194Z,14.10
2018-03-25T17:59:49.239Z,16.10
2018-03-25T18:02:18.233Z,14.70
2018-03-25T18:04:52.263Z,16.00
2018-03-25T18:07:20.280Z,17.40
2018-03-25T18:09:49.200Z,19.45
2018-03-25T18:12:18.226Z,17.40
2018-03-25T18:14:46.228Z,19.48
2018-03-25T18:17:33.465Z,18.62
2018-03-25T18:19:44.281Z,18.23
2018-03-25T18:22:19.084Z,19.05
2018-03-25T18:24:47.095Z,17.02
2018-03-25T18:27:17.912Z,18.80
2018-03-25T18:29:57.408Z,18.70
2018-03-25T18:32:27.344Z,20.70
2018-03-25T18:34:55.371Z,18.05
2018-03-25T18:37:33.916Z,19.80
2018-03-25T18:40:08.636Z,20.83
2018-03-25T18:42:36.727Z,20.35
2018-03-25T18:45:04.726Z,20.27
2018-03-25T18:47:44.932Z,22.52
2018-03-25T18:50:12.968Z,19.67
2018-03-25T18:52:42.952Z,18.98
2018-03-25T18:55:16.362Z,17.98
2018-03-25T18:57:49.019Z,17.73
2018-03-25T19:00:24.326Z,17.87
2018-03-25T19:02:58.491Z,19.10
2018-03-25T19:05:26.865Z,19.02
2018-03-25T19:07:54.908Z,18.90
2018-03-25T19:10:22.985Z,21.50
2018-03-25T19:12:53.488Z,20.80
2018-03-25T19:15:27.319Z,20.20
2018-03-25T19:18:01.808Z,20.40
2018-03-25T19:20:31.611Z,21.37
2018-03-25T19:23:01.572Z,20.27
2018-03-25T19:25:29.588Z,21.40
2018-03-25T19:27:58.527Z,19.10
2018-03-25T19:30:28.435Z,19.98
2018-03-25T19:33:03.888Z,19.55
2018-03-25T19:35:32.891Z,21.10
2018-03-25T19:38:01.892Z,20.25
2018-03-25T19:40:29.908Z,16.20
2018-03-25T19:42:57.915Z,15.73
2018-03-25T19:45:25.932Z,16.67
2018-03-25T19:47:54.867Z,17.40
2018-03-25T19:50:22.891Z,17.98
2018-03-25T19:52:51.683Z,18.00
2018-03-25T19:55:19.679Z,17.45
2018-03-25T19:57:47.723Z,18.02
2018-03-25T20:00:16.662Z,20.05
2018-03-25T20:02:44.655Z,19.40
2018-03-25T20:05:16.259Z,19.65
2018-03-25T20:07:44.306Z,19.83
2018-03-25T20:10:12.328Z,22.55
2018-03-25T20:12:41.362Z,21.25
2018-03-25T20:15:10.319Z,23.87
2018-03-25T20:17:42.611Z,23.83
2018-03-25T20:20:12.619Z,20.85
2018-03-25T20:22:40.650Z,20.80
2018-03-25T20:25:14.595Z,22.75
2018-03-25T20:27:42.675Z,20.23
2018-03-25T20:30:19.715Z,21.67
2018-03-25T20:32:49.666Z,21.12
2018-03-25T20:35:31.682Z,18.90
2018-03-25T20:41:08.933Z,24.30
2018-03-25T20:43:42.467Z,26.17
2018-03-25T20:46:13.399Z,31.37
2018-03-25T20:48:51.147Z,29.58
2018-03-25T20:51:30.795Z,27.83
2018-03-25T20:54:08.375Z,22.17
2018-03-25T20:56:39.687Z,15.45
2018-03-25T20:59:12.359Z,13.95
2018-03-25T21:01:50.475Z,11.98
2018-03-25T21:04:27.470Z,13.93
2018-03-25T21:07:08.115Z,16.25
2018-03-25T21:09:40.083Z,16.80
2018-03-25T21:18:01.915Z,16.00
2018-03-25T21:20:34.430Z,17.62
2018-03-25T21:23:06.987Z,20.10
2018-03-25T21:31:31.354Z,21.58
2018-03-25T21:34:05.547Z,21.08
2018-03-25T21:36:39.335Z,22.85
2018-03-25T21:39:09.850Z,20.15
2018-03-25T21:41:42.778Z,19.25
2018-03-25T21:44:28.782Z,18.27
2018-03-25T21:46:56.806Z,17.70
2018-03-25T21:49:27.950Z,21.75
2018-03-25T21:52:00.631Z,20.10
2018-03-25T21:54:35.378Z,21.58
2018-03-25T21:57:16.778Z,21.67
2018-03-25T21:59:45.863Z,20.75
2018-03-25T22:02:14.790Z,24.10
2018-03-25T22:04:44.802Z,23.40
2018-03-25T22:07:19.812Z,21.98
2018-03-25T22:09:51.826Z,18.27
2018-03-25T22:12:20.794Z,20.05
2018-03-25T22:14:54.994Z,20.45
2018-03-25T22:17:24.046Z,18.65
2018-03-25T22:19:52.138Z,16.75
2018-03-25T22:22:21.076Z,19.87
2018-03-25T22:24:51.078Z,19.80
2018-03-25T22:27:25.583Z,18.58
2018-03-25T22:29:55.726Z,20.80
2018-03-25T22:32:36.230Z,18.87
2018-03-25T22:35:05.994Z,19.52
2018-03-25T22:37:35.006Z,20.30
2018-03-25T22:40:03.985Z,20.10
2018-03-25T22:42:32.890Z,19.05
2018-03-25T22:45:04.614Z,20.60
2018-03-25T22:47:39.014Z,21.70
2018-03-25T22:50:10.386Z,19.15
2018-03-25T22:52:38.401Z,20.37
2018-03-25T22:55:07.198Z,20.42
2018-03-25T22:57:39.341Z,18.98
2018-03-25T23:00:18.737Z,19.17
2018-03-25T23:02:48.682Z,19.30
2018-03-25T23:05:16.698Z,17.95
2018-03-25T23:07:44.730Z,21.02
2018-03-25T23:10:15.458Z,18.37
2018-03-25T23:12:51.065Z,18.83
2018-03-25T23:15:20.988Z,21.08
2018-03-25T23:17:49.013Z,21.00
2018-03-25T23:20:21.650Z,21.02
2018-03-25T23:22:50.641Z,22.33
2018-03-25T23:25:18.701Z,19.27
2018-03-25T23:27:50.785Z,19.10
2018-03-25T23:30:19.781Z,18.15
2018-03-25T23:32:56.097Z,20.15
2018-03-25T23:35:27.885Z,18.45
2018-03-25T23:37:57.913Z,20.02
2018-03-25T23:40:31.157Z,18.80
2018-03-25T23:43:05.585Z,18.80
2018-03-25T23:45:40.336Z,19.62
2018-03-25T23:48:12.497Z,20.65
2018-03-25T23:50:42.470Z,21.33
2018-03-25T23:53:12.450Z,20.40
2018-03-25T23:56:01.149Z,19.27
2018-03-25T23:58:30.093Z,20.85
